Accueil
METAR-TAF:

METAR-TAF

Aéroports :

Aéroport international de Kunming Changshui

Kunming, Chine

latitude: 25-01N, longitude: 102-41E, altitude: 1892 m

Observation

Le bulletin a été fait il y a 40 minutes, à 07:00 UTC
Vent 12 kt de ouest/sud-ouest, variant entre sud et ouest
Température 26°C
Humidité 42%
Pression 1016 hPa
Visibilité 10 km ou plus
Nuages épars à une hauteur de 2600 ft

METAR: ZPPP 030700Z 24006MPS 190V280 9999 SCT026 26/12 Q1016 NOSIG

Heure: 15:40 (07:40 UTC)

Prévision

Le bulletin a été fait il y a 4 heures et 34 minutes, à 03:06 UTC
Prévision valable du 03 à 06 UTC au 04 à 06 UTC
Vent 12 kt de sud-ouest
Visibilité 10 km ou plus
Nuages épars à une hauteur de 2600 ft

TAF: ZPPP 030306Z 0306/0406 23006MPS 9999 SCT026 TX28/0308Z TN14/0323Z

Observations et prévisions météorologiques de plus de 4000 aéroports (messages METAR et TAF).

Les stations disponibles sont représentées par des disques jaunes et rouges sur la carte.

Passer la souris dessus pour voir le nom de la station.

Cliquer dessus pour voir les observations et prévisions météorologiques.

Pour changer de carte: cliquez sur les boutons verts avec une croix noire pour zoomer, sur le bouton vert avec un tiret pour effectuer un zoom arrière, ou sur les flèches vertes pour les cartes adjacentes.


METAR-TAF: